sensor_id;sensor_type;location;lat;lon;timestamp;pressure;altitude;pressure_sealevel;temperature;humidity
56176;BME280;63065;51.082;17.016;2023-05-13T00:02:05;100716.33;;;14.59;30.77
56176;BME280;63065;51.082;17.016;2023-05-13T00:04:31;100714.59;;;14.58;30.70
56176;BME280;63065;51.082;17.016;2023-05-13T00:06:56;100716.52;;;14.34;31.44
56176;BME280;63065;51.082;17.016;2023-05-13T00:09:22;100716.89;;;14.31;31.63
56176;BME280;63065;51.082;17.016;2023-05-13T00:11:48;100714.99;;;14.07;31.47
56176;BME280;63065;51.082;17.016;2023-05-13T00:14:13;100713.27;;;14.54;30.95
56176;BME280;63065;51.082;17.016;2023-05-13T00:16:39;100713.10;;;14.39;31.21
56176;BME280;63065;51.082;17.016;2023-05-13T00:19:04;100712.66;;;14.40;31.30
56176;BME280;63065;51.082;17.016;2023-05-13T00:21:29;100705.96;;;14.36;31.45
56176;BME280;63065;51.082;17.016;2023-05-13T00:23:55;100706.08;;;14.45;31.38
56176;BME280;63065;51.082;17.016;2023-05-13T00:26:20;100700.07;;;14.49;30.73
56176;BME280;63065;51.082;17.016;2023-05-13T00:28:45;100703.04;;;14.65;30.93
56176;BME280;63065;51.082;17.016;2023-05-13T00:31:12;100703.45;;;14.61;31.23
56176;BME280;63065;51.082;17.016;2023-05-13T00:33:36;100701.06;;;14.29;30.38
56176;BME280;63065;51.082;17.016;2023-05-13T00:36:02;100702.57;;;14.32;31.22
56176;BME280;63065;51.082;17.016;2023-05-13T00:38:26;100703.43;;;14.17;31.48
56176;BME280;63065;51.082;17.016;2023-05-13T00:40:52;100706.54;;;13.95;31.53
56176;BME280;63065;51.082;17.016;2023-05-13T00:43:17;100707.51;;;13.77;32.01
56176;BME280;63065;51.082;17.016;2023-05-13T00:45:42;100708.72;;;14.25;31.47
56176;BME280;63065;51.082;17.016;2023-05-13T00:48:08;100710.17;;;13.86;32.17
56176;BME280;63065;51.082;17.016;2023-05-13T00:50:34;100711.93;;;13.93;32.70
56176;BME280;63065;51.082;17.016;2023-05-13T00:52:59;100716.74;;;14.03;32.30
56176;BME280;63065;51.082;17.016;2023-05-13T00:55:24;100722.47;;;14.15;31.69
56176;BME280;63065;51.082;17.016;2023-05-13T00:57:49;100724.80;;;13.92;31.81
56176;BME280;63065;51.082;17.016;2023-05-13T01:00:15;100734.47;;;14.05;32.10
56176;BME280;63065;51.082;17.016;2023-05-13T01:02:46;100739.40;;;14.01;32.11
56176;BME280;63065;51.082;17.016;2023-05-13T01:05:11;100739.53;;;13.77;32.99
56176;BME280;63065;51.082;17.016;2023-05-13T01:07:37;100741.12;;;13.75;32.08
56176;BME280;63065;51.082;17.016;2023-05-13T01:10:02;100740.74;;;13.75;33.20
56176;BME280;63065;51.082;17.016;2023-05-13T01:12:29;100743.21;;;14.17;32.86
56176;BME280;63065;51.082;17.016;2023-05-13T01:14:53;100748.37;;;13.63;32.92
56176;BME280;63065;51.082;17.016;2023-05-13T01:17:15;100752.56;;;13.69;33.13
56176;BME280;63065;51.082;17.016;2023-05-13T01:19:41;100754.29;;;13.49;33.70
56176;BME280;63065;51.082;17.016;2023-05-13T01:22:05;100755.88;;;13.25;33.28
56176;BME280;63065;51.082;17.016;2023-05-13T01:24:28;100756.51;;;12.97;33.79
56176;BME280;63065;51.082;17.016;2023-05-13T01:26:53;100756.34;;;12.66;34.32
56176;BME280;63065;51.082;17.016;2023-05-13T01:29:19;100756.63;;;12.98;35.54
56176;BME280;63065;51.082;17.016;2023-05-13T01:31:46;100757.96;;;12.86;34.23
56176;BME280;63065;51.082;17.016;2023-05-13T01:34:12;100758.38;;;13.29;33.25
56176;BME280;63065;51.082;17.016;2023-05-13T01:36:35;100759.46;;;13.13;34.17
56176;BME280;63065;51.082;17.016;2023-05-13T01:39:01;100759.21;;;12.78;34.43
56176;BME280;63065;51.082;17.016;2023-05-13T01:41:26;100759.00;;;12.08;35.92
56176;BME280;63065;51.082;17.016;2023-05-13T01:43:52;100758.28;;;11.98;35.52
56176;BME280;63065;51.082;17.016;2023-05-13T01:46:17;100759.18;;;11.96;35.46
56176;BME280;63065;51.082;17.016;2023-05-13T01:48:42;100756.53;;;12.17;36.06
56176;BME280;63065;51.082;17.016;2023-05-13T01:51:08;100756.83;;;11.94;37.18
56176;BME280;63065;51.082;17.016;2023-05-13T01:53:33;100756.45;;;12.02;37.16
56176;BME280;63065;51.082;17.016;2023-05-13T01:55:58;100756.98;;;11.97;37.38
56176;BME280;63065;51.082;17.016;2023-05-13T01:58:24;100761.27;;;11.73;36.57
56176;BME280;63065;51.082;17.016;2023-05-13T02:00:49;100760.32;;;12.10;36.32
56176;BME280;63065;51.082;17.016;2023-05-13T02:03:15;100754.20;;;11.87;37.12
56176;BME280;63065;51.082;17.016;2023-05-13T02:05:40;100754.90;;;11.75;36.67
56176;BME280;63065;51.082;17.016;2023-05-13T02:08:06;100755.85;;;11.18;37.80
56176;BME280;63065;51.082;17.016;2023-05-13T02:10:32;100754.49;;;11.56;37.37
56176;BME280;63065;51.082;17.016;2023-05-13T02:12:57;100753.31;;;11.92;36.78
56176;BME280;63065;51.082;17.016;2023-05-13T02:15:23;100755.16;;;11.28;37.94
56176;BME280;63065;51.082;17.016;2023-05-13T02:17:48;100756.09;;;11.43;37.11
56176;BME280;63065;51.082;17.016;2023-05-13T02:20:13;100755.44;;;11.65;36.85
56176;BME280;63065;51.082;17.016;2023-05-13T02:22:38;100754.09;;;11.98;37.12
56176;BME280;63065;51.082;17.016;2023-05-13T02:25:04;100758.06;;;11.40;37.73
56176;BME280;63065;51.082;17.016;2023-05-13T02:27:29;100754.35;;;11.68;36.93
56176;BME280;63065;51.082;17.016;2023-05-13T02:29:54;100755.01;;;11.60;38.03
56176;BME280;63065;51.082;17.016;2023-05-13T02:32:20;100758.36;;;11.31;38.17
56176;BME280;63065;51.082;17.016;2023-05-13T02:34:45;100754.99;;;11.32;38.13
56176;BME280;63065;51.082;17.016;2023-05-13T02:37:12;100752.99;;;11.10;37.82
56176;BME280;63065;51.082;17.016;2023-05-13T02:39:36;100749.59;;;11.51;37.96
56176;BME280;63065;51.082;17.016;2023-05-13T02:42:02;100746.85;;;11.63;37.88
56176;BME280;63065;51.082;17.016;2023-05-13T02:44:28;100748.89;;;11.36;37.75
56176;BME280;63065;51.082;17.016;2023-05-13T02:46:53;100750.57;;;11.32;38.34
56176;BME280;63065;51.082;17.016;2023-05-13T02:49:18;100750.26;;;11.29;38.70
56176;BME280;63065;51.082;17.016;2023-05-13T02:51:44;100750.12;;;11.86;37.43
56176;BME280;63065;51.082;17.016;2023-05-13T02:54:09;100750.86;;;11.68;37.06
56176;BME280;63065;51.082;17.016;2023-05-13T02:56:35;100752.58;;;11.83;37.04
56176;BME280;63065;51.082;17.016;2023-05-13T02:59:01;100753.28;;;11.71;37.13
56176;BME280;63065;51.082;17.016;2023-05-13T03:01:26;100756.18;;;11.70;36.76
56176;BME280;63065;51.082;17.016;2023-05-13T03:03:52;100757.74;;;11.37;37.20
56176;BME280;63065;51.082;17.016;2023-05-13T03:06:17;100756.68;;;11.68;36.87
56176;BME280;63065;51.082;17.016;2023-05-13T03:08:42;100759.34;;;11.84;36.56
56176;BME280;63065;51.082;17.016;2023-05-13T03:11:07;100760.22;;;12.19;36.88
56176;BME280;63065;51.082;17.016;2023-05-13T03:13:33;100763.31;;;11.83;37.26
56176;BME280;63065;51.082;17.016;2023-05-13T03:15:58;100766.25;;;11.28;37.19
56176;BME280;63065;51.082;17.016;2023-05-13T03:18:23;100769.15;;;11.45;37.24
56176;BME280;63065;51.082;17.016;2023-05-13T03:20:48;100772.38;;;11.64;37.40
56176;BME280;63065;51.082;17.016;2023-05-13T03:23:13;100777.64;;;11.34;37.64
56176;BME280;63065;51.082;17.016;2023-05-13T03:25:39;100776.97;;;11.62;38.07
56176;BME280;63065;51.082;17.016;2023-05-13T03:28:04;100778.95;;;11.51;37.86
56176;BME280;63065;51.082;17.016;2023-05-13T03:30:30;100773.63;;;11.33;37.35
56176;BME280;63065;51.082;17.016;2023-05-13T03:32:56;100773.46;;;11.36;37.48
56176;BME280;63065;51.082;17.016;2023-05-13T03:35:21;100773.21;;;11.13;38.27
56176;BME280;63065;51.082;17.016;2023-05-13T03:37:47;100774.67;;;11.52;37.56
56176;BME280;63065;51.082;17.016;2023-05-13T03:40:12;100774.14;;;11.76;37.19
56176;BME280;63065;51.082;17.016;2023-05-13T03:42:37;100773.65;;;11.66;37.20
56176;BME280;63065;51.082;17.016;2023-05-13T03:45:04;100778.64;;;11.77;37.11
56176;BME280;63065;51.082;17.016;2023-05-13T03:47:28;100777.72;;;11.74;36.94
56176;BME280;63065;51.082;17.016;2023-05-13T03:49:54;100778.69;;;11.74;37.36
56176;BME280;63065;51.082;17.016;2023-05-13T03:52:19;100782.45;;;11.78;37.33
56176;BME280;63065;51.082;17.016;2023-05-13T03:54:45;100785.08;;;11.72;36.74
56176;BME280;63065;51.082;17.016;2023-05-13T03:57:11;100784.94;;;12.01;36.35
56176;BME280;63065;51.082;17.016;2023-05-13T03:59:36;100787.88;;;12.10;36.18
56176;BME280;63065;51.082;17.016;2023-05-13T04:02:02;100790.12;;;12.01;36.01
56176;BME280;63065;51.082;17.016;2023-05-13T04:04:27;100794.94;;;12.31;36.48
56176;BME280;63065;51.082;17.016;2023-05-13T04:06:53;100793.76;;;12.12;36.51
56176;BME280;63065;51.082;17.016;2023-05-13T04:09:19;100794.45;;;11.89;36.00
56176;BME280;63065;51.082;17.016;2023-05-13T04:11:44;100797.23;;;11.71;36.02
56176;BME280;63065;51.082;17.016;2023-05-13T04:14:09;100798.55;;;12.32;36.19
56176;BME280;63065;51.082;17.016;2023-05-13T04:16:34;100800.26;;;12.02;36.64
56176;BME280;63065;51.082;17.016;2023-05-13T04:19:00;100799.68;;;12.73;34.84
56176;BME280;63065;51.082;17.016;2023-05-13T04:21:26;100801.44;;;12.56;36.43
56176;BME280;63065;51.082;17.016;2023-05-13T04:23:50;100802.55;;;12.18;36.04
56176;BME280;63065;51.082;17.016;2023-05-13T04:26:16;100800.37;;;12.56;35.38
56176;BME280;63065;51.082;17.016;2023-05-13T04:28:41;100802.52;;;12.95;34.48
56176;BME280;63065;51.082;17.016;2023-05-13T04:31:07;100803.53;;;13.15;34.62
56176;BME280;63065;51.082;17.016;2023-05-13T04:33:33;100806.37;;;12.60;36.24
56176;BME280;63065;51.082;17.016;2023-05-13T04:35:58;100808.23;;;12.58;35.44
56176;BME280;63065;51.082;17.016;2023-05-13T04:38:24;100807.91;;;12.93;35.31
56176;BME280;63065;51.082;17.016;2023-05-13T04:40:49;100808.06;;;12.61;35.10
56176;BME280;63065;51.082;17.016;2023-05-13T04:43:14;100809.69;;;13.36;34.28
56176;BME280;63065;51.082;17.016;2023-05-13T04:45:39;100812.49;;;12.30;35.25
56176;BME280;63065;51.082;17.016;2023-05-13T04:48:05;100810.74;;;12.71;35.46
56176;BME280;63065;51.082;17.016;2023-05-13T04:50:30;100812.84;;;12.98;35.02
56176;BME280;63065;51.082;17.016;2023-05-13T04:52:56;100810.87;;;13.28;34.86
56176;BME280;63065;51.082;17.016;2023-05-13T04:55:21;100814.79;;;13.17;34.12
56176;BME280;63065;51.082;17.016;2023-05-13T04:57:47;100815.43;;;12.84;34.36
56176;BME280;63065;51.082;17.016;2023-05-13T05:00:13;100816.27;;;13.35;34.40
56176;BME280;63065;51.082;17.016;2023-05-13T05:02:37;100814.64;;;13.12;34.35
56176;BME280;63065;51.082;17.016;2023-05-13T05:05:02;100813.83;;;13.52;33.59
56176;BME280;63065;51.082;17.016;2023-05-13T05:07:28;100815.31;;;13.03;34.96
56176;BME280;63065;51.082;17.016;2023-05-13T05:09:53;100814.47;;;13.50;34.07
56176;BME280;63065;51.082;17.016;2023-05-13T05:12:18;100814.97;;;14.07;33.86
56176;BME280;63065;51.082;17.016;2023-05-13T05:14:44;100818.03;;;13.69;33.91
56176;BME280;63065;51.082;17.016;2023-05-13T05:17:09;100818.36;;;13.32;34.51
56176;BME280;63065;51.082;17.016;2023-05-13T05:19:35;100819.91;;;13.34;34.78
56176;BME280;63065;51.082;17.016;2023-05-13T05:22:00;100825.22;;;13.42;34.63
56176;BME280;63065;51.082;17.016;2023-05-13T05:24:25;100829.07;;;13.62;34.39
56176;BME280;63065;51.082;17.016;2023-05-13T05:26:50;100827.25;;;13.77;34.60
56176;BME280;63065;51.082;17.016;2023-05-13T05:29:15;100830.52;;;13.44;35.48
56176;BME280;63065;51.082;17.016;2023-05-13T05:31:40;100833.39;;;13.95;33.91
56176;BME280;63065;51.082;17.016;2023-05-13T05:34:06;100838.65;;;14.18;33.61
56176;BME280;63065;51.082;17.016;2023-05-13T05:36:31;100837.81;;;13.84;34.32
56176;BME280;63065;51.082;17.016;2023-05-13T05:38:57;100837.36;;;14.09;33.87
56176;BME280;63065;51.082;17.016;2023-05-13T05:41:22;100841.32;;;13.96;34.20
56176;BME280;63065;51.082;17.016;2023-05-13T05:43:48;100843.40;;;13.87;34.19
56176;BME280;63065;51.082;17.016;2023-05-13T05:46:14;100844.45;;;14.14;33.95
56176;BME280;63065;51.082;17.016;2023-05-13T05:48:38;100847.42;;;14.01;34.86
56176;BME280;63065;51.082;17.016;2023-05-13T05:51:04;100850.88;;;14.27;34.30
56176;BME280;63065;51.082;17.016;2023-05-13T05:53:29;100849.88;;;14.55;33.79
56176;BME280;63065;51.082;17.016;2023-05-13T05:55:54;100847.49;;;14.39;33.63
56176;BME280;63065;51.082;17.016;2023-05-13T05:58:20;100855.35;;;14.72;33.92
56176;BME280;63065;51.082;17.016;2023-05-13T06:00:46;100848.33;;;15.17;33.57
56176;BME280;63065;51.082;17.016;2023-05-13T06:03:17;100847.59;;;14.62;34.22
56176;BME280;63065;51.082;17.016;2023-05-13T06:05:37;100848.73;;;14.75;33.33
56176;BME280;63065;51.082;17.016;2023-05-13T06:08:03;100848.23;;;14.68;33.87
56176;BME280;63065;51.082;17.016;2023-05-13T06:10:28;100846.74;;;15.28;33.65
56176;BME280;63065;51.082;17.016;2023-05-13T06:12:54;100848.08;;;14.67;34.50
56176;BME280;63065;51.082;17.016;2023-05-13T06:15:19;100844.64;;;15.25;34.15
56176;BME280;63065;51.082;17.016;2023-05-13T06:17:45;100846.62;;;14.74;33.95
56176;BME280;63065;51.082;17.016;2023-05-13T06:20:12;100847.44;;;15.09;33.49
56176;BME280;63065;51.082;17.016;2023-05-13T06:22:36;100844.78;;;15.25;33.76
56176;BME280;63065;51.082;17.016;2023-05-13T06:25:02;100849.05;;;15.23;33.85
56176;BME280;63065;51.082;17.016;2023-05-13T06:27:27;100849.02;;;14.84;34.09
56176;BME280;63065;51.082;17.016;2023-05-13T06:29:53;100849.59;;;15.13;33.61
56176;BME280;63065;51.082;17.016;2023-05-13T06:32:18;100850.11;;;14.90;34.40
56176;BME280;63065;51.082;17.016;2023-05-13T06:34:43;100851.03;;;14.87;33.97
56176;BME280;63065;51.082;17.016;2023-05-13T06:37:09;100855.23;;;15.48;33.47
56176;BME280;63065;51.082;17.016;2023-05-13T06:39:34;100856.79;;;15.10;33.60
56176;BME280;63065;51.082;17.016;2023-05-13T06:42:00;100856.47;;;15.31;34.38
56176;BME280;63065;51.082;17.016;2023-05-13T06:44:25;100858.06;;;15.45;33.64
56176;BME280;63065;51.082;17.016;2023-05-13T06:46:51;100855.02;;;15.72;33.58
56176;BME280;63065;51.082;17.016;2023-05-13T06:49:16;100855.60;;;15.71;33.37
56176;BME280;63065;51.082;17.016;2023-05-13T06:51:42;100855.17;;;16.09;32.26
56176;BME280;63065;51.082;17.016;2023-05-13T06:54:07;100857.85;;;15.89;32.89
56176;BME280;63065;51.082;17.016;2023-05-13T06:56:34;100856.69;;;16.24;32.31
56176;BME280;63065;51.082;17.016;2023-05-13T06:58:58;100862.74;;;15.83;33.25
56176;BME280;63065;51.082;17.016;2023-05-13T07:01:24;100861.08;;;16.48;32.19
56176;BME280;63065;51.082;17.016;2023-05-13T07:03:50;100862.87;;;16.21;33.04
56176;BME280;63065;51.082;17.016;2023-05-13T07:06:15;100860.10;;;16.30;33.14
56176;BME280;63065;51.082;17.016;2023-05-13T07:08:41;100857.47;;;16.27;32.73
56176;BME280;63065;51.082;17.016;2023-05-13T07:11:06;100856.31;;;16.26;32.92
56176;BME280;63065;51.082;17.016;2023-05-13T07:13:31;100854.96;;;16.52;32.94
56176;BME280;63065;51.082;17.016;2023-05-13T07:15:57;100852.74;;;16.60;32.49
56176;BME280;63065;51.082;17.016;2023-05-13T07:18:27;100853.57;;;16.99;32.58
56176;BME280;63065;51.082;17.016;2023-05-13T07:20:48;100857.21;;;17.12;32.10
56176;BME280;63065;51.082;17.016;2023-05-13T07:23:13;100855.39;;;16.87;32.05
56176;BME280;63065;51.082;17.016;2023-05-13T07:25:39;100854.13;;;16.93;32.48
56176;BME280;63065;51.082;17.016;2023-05-13T07:28:05;100854.52;;;17.00;31.92
56176;BME280;63065;51.082;17.016;2023-05-13T07:30:31;100855.64;;;16.97;32.94
56176;BME280;63065;51.082;17.016;2023-05-13T07:32:56;100854.80;;;17.00;31.78
56176;BME280;63065;51.082;17.016;2023-05-13T07:35:22;100851.88;;;17.87;30.81
56176;BME280;63065;51.082;17.016;2023-05-13T07:37:47;100852.66;;;17.06;32.53
56176;BME280;63065;51.082;17.016;2023-05-13T07:40:13;100855.51;;;17.69;31.45
56176;BME280;63065;51.082;17.016;2023-05-13T07:42:39;100855.61;;;17.38;31.50
56176;BME280;63065;51.082;17.016;2023-05-13T07:45:05;100858.85;;;17.57;31.58
56176;BME280;63065;51.082;17.016;2023-05-13T07:47:29;100860.25;;;17.65;31.86
56176;BME280;63065;51.082;17.016;2023-05-13T07:49:55;100860.88;;;17.59;31.58
56176;BME280;63065;51.082;17.016;2023-05-13T07:52:20;100862.94;;;17.66;31.76
56176;BME280;63065;51.082;17.016;2023-05-13T07:54:46;100859.80;;;17.76;31.46
56176;BME280;63065;51.082;17.016;2023-05-13T07:57:12;100860.57;;;17.82;31.81
56176;BME280;63065;51.082;17.016;2023-05-13T07:59:37;100865.80;;;18.26;32.06
56176;BME280;63065;51.082;17.016;2023-05-13T08:02:02;100866.72;;;18.26;31.54
56176;BME280;63065;51.082;17.016;2023-05-13T08:04:28;100864.06;;;18.03;30.98
56176;BME280;63065;51.082;17.016;2023-05-13T08:06:53;100866.49;;;18.09;31.45
56176;BME280;63065;51.082;17.016;2023-05-13T08:09:19;100865.67;;;18.46;31.34
56176;BME280;63065;51.082;17.016;2023-05-13T08:11:44;100864.31;;;18.33;30.76
56176;BME280;63065;51.082;17.016;2023-05-13T08:14:10;100866.57;;;18.59;31.77
56176;BME280;63065;51.082;17.016;2023-05-13T08:16:35;100871.25;;;19.05;31.24
56176;BME280;63065;51.082;17.016;2023-05-13T08:19:01;100867.76;;;18.41;32.18
56176;BME280;63065;51.082;17.016;2023-05-13T08:21:26;100868.47;;;19.03;31.86
56176;BME280;63065;51.082;17.016;2023-05-13T08:23:52;100874.09;;;18.81;31.71
56176;BME280;63065;51.082;17.016;2023-05-13T08:26:17;100875.08;;;19.12;31.87
56176;BME280;63065;51.082;17.016;2023-05-13T08:28:43;100877.49;;;19.57;30.53
56176;BME280;63065;51.082;17.016;2023-05-13T08:31:10;100877.32;;;19.27;31.38
56176;BME280;63065;51.082;17.016;2023-05-13T08:33:34;100875.84;;;19.15;30.99
56176;BME280;63065;51.082;17.016;2023-05-13T08:36:00;100882.66;;;19.50;31.23
56176;BME280;63065;51.082;17.016;2023-05-13T08:38:25;100876.63;;;19.24;29.73
56176;BME280;63065;51.082;17.016;2023-05-13T08:40:50;100871.10;;;18.81;31.22
56176;BME280;63065;51.082;17.016;2023-05-13T08:43:16;100872.15;;;18.98;32.11
56176;BME280;63065;51.082;17.016;2023-05-13T08:45:45;100871.00;;;19.30;32.18
56176;BME280;63065;51.082;17.016;2023-05-13T08:48:07;100871.74;;;19.70;30.52
56176;BME280;63065;51.082;17.016;2023-05-13T08:50:34;100870.79;;;19.44;30.55
56176;BME280;63065;51.082;17.016;2023-05-13T08:52:58;100871.15;;;20.04;30.39
56176;BME280;63065;51.082;17.016;2023-05-13T08:55:23;100873.04;;;19.91;30.99
56176;BME280;63065;51.082;17.016;2023-05-13T08:57:49;100873.02;;;20.09;29.74
56176;BME280;63065;51.082;17.016;2023-05-13T09:00:14;100868.86;;;20.40;29.62
56176;BME280;63065;51.082;17.016;2023-05-13T09:02:40;100861.73;;;20.55;28.35
56176;BME280;63065;51.082;17.016;2023-05-13T09:05:06;100859.80;;;20.01;30.34
56176;BME280;63065;51.082;17.016;2023-05-13T09:07:30;100863.58;;;20.12;29.92
56176;BME280;63065;51.082;17.016;2023-05-13T09:09:56;100861.19;;;20.61;29.08
56176;BME280;63065;51.082;17.016;2023-05-13T09:14:47;100863.85;;;19.62;29.40
56176;BME280;63065;51.082;17.016;2023-05-13T09:17:13;100862.21;;;20.68;26.84
56176;BME280;63065;51.082;17.016;2023-05-13T09:19:41;100865.46;;;20.76;28.11
56176;BME280;63065;51.082;17.016;2023-05-13T09:22:04;100864.23;;;20.70;27.70
56176;BME280;63065;51.082;17.016;2023-05-13T09:24:30;100862.59;;;20.85;27.85
56176;BME280;63065;51.082;17.016;2023-05-13T09:26:55;100858.82;;;20.61;28.12
56176;BME280;63065;51.082;17.016;2023-05-13T09:29:23;100860.96;;;21.56;26.54
56176;BME280;63065;51.082;17.016;2023-05-13T09:31:48;100859.46;;;21.49;27.08
56176;BME280;63065;51.082;17.016;2023-05-13T09:34:13;100858.99;;;20.70;28.05
56176;BME280;63065;51.082;17.016;2023-05-13T09:36:38;100858.95;;;20.41;27.50
56176;BME280;63065;51.082;17.016;2023-05-13T09:39:04;100858.81;;;20.56;27.54
56176;BME280;63065;51.082;17.016;2023-05-13T09:41:30;100858.36;;;20.70;27.85
56176;BME280;63065;51.082;17.016;2023-05-13T09:43:56;100857.14;;;20.98;27.73
56176;BME280;63065;51.082;17.016;2023-05-13T09:46:20;100854.63;;;20.58;27.73
56176;BME280;63065;51.082;17.016;2023-05-13T09:48:45;100852.39;;;20.91;27.56
56176;BME280;63065;51.082;17.016;2023-05-13T09:51:14;100856.22;;;20.27;28.84
56176;BME280;63065;51.082;17.016;2023-05-13T09:53:37;100847.05;;;21.14;26.83
56176;BME280;63065;51.082;17.016;2023-05-13T09:56:03;100844.53;;;20.66;27.73
56176;BME280;63065;51.082;17.016;2023-05-13T09:58:28;100842.87;;;20.55;28.14
56176;BME280;63065;51.082;17.016;2023-05-13T10:00:56;100846.75;;;21.15;27.44
56176;BME280;63065;51.082;17.016;2023-05-13T10:03:20;100841.68;;;21.30;27.02
56176;BME280;63065;51.082;17.016;2023-05-13T10:05:46;100842.54;;;21.51;26.27
56176;BME280;63065;51.082;17.016;2023-05-13T10:08:13;100842.25;;;21.77;26.91
56176;BME280;63065;51.082;17.016;2023-05-13T10:10:37;100834.82;;;21.00;26.84
56176;BME280;63065;51.082;17.016;2023-05-13T10:13:04;100836.98;;;21.24;27.79
56176;BME280;63065;51.082;17.016;2023-05-13T10:15:28;100834.61;;;21.42;27.28
56176;BME280;63065;51.082;17.016;2023-05-13T10:17:53;100831.93;;;21.25;26.17
56176;BME280;63065;51.082;17.016;2023-05-13T10:20:19;100824.61;;;21.83;24.50
56176;BME280;63065;51.082;17.016;2023-05-13T10:22:44;100824.83;;;21.69;26.05
56176;BME280;63065;51.082;17.016;2023-05-13T10:25:10;100827.30;;;22.74;24.97
56176;BME280;63065;51.082;17.016;2023-05-13T10:27:36;100829.85;;;22.61;25.44
56176;BME280;63065;51.082;17.016;2023-05-13T10:30:02;100825.70;;;22.85;24.94
56176;BME280;63065;51.082;17.016;2023-05-13T10:32:28;100830.41;;;21.99;25.25
56176;BME280;63065;51.082;17.016;2023-05-13T10:34:56;100833.12;;;21.72;25.02
56176;BME280;63065;51.082;17.016;2023-05-13T10:42:21;100834.88;;;21.44;25.31
56176;BME280;63065;51.082;17.016;2023-05-13T10:44:35;100837.22;;;21.54;25.25
56176;BME280;63065;51.082;17.016;2023-05-13T10:47:00;100831.41;;;21.49;24.81
56176;BME280;63065;51.082;17.016;2023-05-13T10:49:32;100827.37;;;21.40;24.95
56176;BME280;63065;51.082;17.016;2023-05-13T10:51:51;100823.35;;;21.99;23.93
56176;BME280;63065;51.082;17.016;2023-05-13T10:54:18;100826.89;;;21.89;24.80
56176;BME280;63065;51.082;17.016;2023-05-13T10:56:43;100826.36;;;21.48;24.45
56176;BME280;63065;51.082;17.016;2023-05-13T10:59:11;100826.67;;;21.42;25.30
56176;BME280;63065;51.082;17.016;2023-05-13T11:01:35;100824.70;;;21.17;25.33
56176;BME280;63065;51.082;17.016;2023-05-13T11:04:00;100827.33;;;22.05;24.85
56176;BME280;63065;51.082;17.016;2023-05-13T11:06:29;100828.09;;;22.25;23.18
56176;BME280;63065;51.082;17.016;2023-05-13T11:08:51;100823.31;;;22.42;22.53
56176;BME280;63065;51.082;17.016;2023-05-13T11:13:42;100821.89;;;22.37;22.66
56176;BME280;63065;51.082;17.016;2023-05-13T11:16:12;100823.29;;;22.26;23.54
56176;BME280;63065;51.082;17.016;2023-05-13T11:18:34;100822.33;;;22.48;23.13
56176;BME280;63065;51.082;17.016;2023-05-13T11:21:02;100828.08;;;21.67;23.62
56176;BME280;63065;51.082;17.016;2023-05-13T11:23:25;100830.70;;;21.52;24.31
56176;BME280;63065;51.082;17.016;2023-05-13T11:28:16;100826.19;;;21.63;24.20
56176;BME280;63065;51.082;17.016;2023-05-13T11:33:07;100827.43;;;22.44;23.38
56176;BME280;63065;51.082;17.016;2023-05-13T11:35:32;100827.96;;;21.88;23.29
56176;BME280;63065;51.082;17.016;2023-05-13T11:37:59;100829.26;;;21.79;23.43
56176;BME280;63065;51.082;17.016;2023-05-13T11:40:23;100826.12;;;22.09;24.05
56176;BME280;63065;51.082;17.016;2023-05-13T11:42:48;100827.43;;;22.53;22.71
56176;BME280;63065;51.082;17.016;2023-05-13T11:45:15;100828.27;;;21.71;24.30
56176;BME280;63065;51.082;17.016;2023-05-13T11:47:39;100831.25;;;21.88;24.12
56176;BME280;63065;51.082;17.016;2023-05-13T11:52:30;100819.43;;;21.96;23.89
56176;BME280;63065;51.082;17.016;2023-05-13T11:54:56;100825.37;;;22.42;23.21
56176;BME280;63065;51.082;17.016;2023-05-13T11:57:23;100822.88;;;22.52;22.53
56176;BME280;63065;51.082;17.016;2023-05-13T11:59:52;100822.86;;;22.25;23.04
56176;BME280;63065;51.082;17.016;2023-05-13T12:04:38;100824.46;;;22.07;23.15
56176;BME280;63065;51.082;17.016;2023-05-13T12:07:04;100823.28;;;22.83;22.84
56176;BME280;63065;51.082;17.016;2023-05-13T12:09:29;100822.28;;;22.77;22.61
56176;BME280;63065;51.082;17.016;2023-05-13T12:11:54;100823.32;;;23.17;22.58
56176;BME280;63065;51.082;17.016;2023-05-13T12:14:20;100822.14;;;23.31;21.69
56176;BME280;63065;51.082;17.016;2023-05-13T12:16:45;100816.78;;;22.69;21.71
56176;BME280;63065;51.082;17.016;2023-05-13T12:19:10;100815.65;;;23.31;21.90
56176;BME280;63065;51.082;17.016;2023-05-13T12:21:37;100815.93;;;22.57;23.17
56176;BME280;63065;51.082;17.016;2023-05-13T12:24:01;100818.29;;;22.22;22.58
56176;BME280;63065;51.082;17.016;2023-05-13T12:26:27;100818.81;;;21.73;23.51
56176;BME280;63065;51.082;17.016;2023-05-13T12:28:57;100814.52;;;21.88;22.79
56176;BME280;63065;51.082;17.016;2023-05-13T12:31:18;100817.32;;;21.54;23.41
56176;BME280;63065;51.082;17.016;2023-05-13T12:33:44;100822.12;;;21.24;23.44
56176;BME280;63065;51.082;17.016;2023-05-13T12:36:15;100818.63;;;21.64;23.02
56176;BME280;63065;51.082;17.016;2023-05-13T12:38:35;100820.60;;;21.46;23.51
56176;BME280;63065;51.082;17.016;2023-05-13T12:41:10;100821.37;;;21.28;23.43
56176;BME280;63065;51.082;17.016;2023-05-13T12:43:27;100822.13;;;21.56;23.72
56176;BME280;63065;51.082;17.016;2023-05-13T12:45:53;100822.98;;;21.31;23.55
56176;BME280;63065;51.082;17.016;2023-05-13T12:48:22;100820.55;;;21.66;24.08
56176;BME280;63065;51.082;17.016;2023-05-13T12:50:44;100819.54;;;21.45;23.42